Latest METARs, TAFs and NOTAMs for EINN


---------------------------------------------------------------------------
	(OBSERVATIONS)
EINN 241330Z 27014KT 9999 FEW021 BKN027 16/09 Q1014 NOSIG=
EINN 241300Z 28015KT 9999 FEW022 BKN028 16/10 Q1014 NOSIG=
EINN 241230Z 27015KT 9999 FEW021 BKN028 16/11 Q1015 NOSIG=
EINN 241200Z 27016KT 9999 SCT019 BKN034 16/11 Q1014 NOSIG=
EINN 241130Z 28014KT 9999 SCT018 BKN034 16/12 Q1014 NOSIG=
EINN 241100Z 27016KT 9999 SCT019 BKN034 16/12 Q1014 NOSIG=
---------------------------------------------------------------------------
	(FC)
Sorry, FC For EINN Not Found
---------------------------------------------------------------------------
	(TERMINAL AREA FORECAST)
EINN 241100Z 2412/2512 27016KT 9999 SCT017 BKN034
    TEMPO 2412/2416 28015G26KT
    BECMG 2418/2421 24006KT
    TEMPO 2501/2506 4000 -RADZ BKN005=
---------------------------------------------------------------------------
	(NOTAMS)


EINN A0621/17 ILS CATEGORY II RWY 24 OUT OF SERVICE. 25 APR 21:00
    2017 UNTIL 23 JUL 04:00 2017. CREATED: 24 APR 15:10 2017

EINN A0746/17 TRIGGER NOTAM IRELAND AIRAC AMENDMENT NR006 EFFECTIVE
    DATE 22 JUNE 2017. INCLUDED IN THIS AMENDMENT IS THE REVISED
    SECTION EINN AD 2.2 AND 2.19. 22 JUN 00:00 2017 UNTIL 06
    JUL 23:59 2017. CREATED: 08 MAY 15:51 2017

EINN A1156/17 RWY 06/24 CLOSED REF AIP SUPPLEMENT 03/17 RWY 06/24
    REHABILITATION WORKS. TUE 2100-0500, WED 2035-0500, THU 2215-0500,
    FRI 2255-0500, SAT 2150-0500, 24 JUN 21:50 2017 UNTIL 23
    JUL 05:00 2017. CREATED: 23 JUN 22:49 2017

EINN A1157/17 TWY A CLOSED REF RWY 06/24 REHABILITATION WORKS.
    TUE 2100-0500, WED 2035-0500, THU 2215-0500, FRI 2255-0500,
    SAT 2150-0500, 24 JUN 21:50 2017 UNTIL 23 JUL 05:00 2017.
    CREATED: 23 JUN 22:50 2017

EINN A1159/17 RESCUE AND FIREFIGHTING SERVICES CHANGED TO CAT
    7. WED-SUN 0500-0600, 25 JUN 05:00 2017 UNTIL 23 JUL 06:00
    2017. CREATED: 23 JUN 23:44 2017

EINN B0243/17 TDZ LIGHTS RWY 24 OUT OF SERVICE. 25 APR 21:00
    2017 UNTIL 23 JUL 04:00 2017. CREATED: 24 APR 15:16 2017

EINN B0244/17 CENTRELINE LIGHTS RWY 24 OUT OF SERVICE. 25 APR
    21:00 2017 UNTIL 23 JUL 04:00 2017. CREATED: 24 APR 15:18
    2017

EINN B1142/15 HOLDING PROCEDURE CHANGED. RATE OF DESCENT IN HOLDING
    PATTERNS AMENDED TO: A STANDARD RATE OF DESCENT OF 1000FT
    PER MIN IN HOLDING PATTERNS WILL BE USED UNLESS OTHERWISE
    INSTRUCTED BY ATC. PILOTS MUST ADVISE ATC IF UNABLE TO COMPLY
    WITH THE STANDARD RATE OF DESCENT. REF AIP EINN AD 2.22 SECTION
    9. 02 OCT 18:07 2015 UNTIL PERM. CREATED: 01 MAY 11:24 2017

---------------------------------------------------------------------------